sensor_id;sensor_type;location;lat;lon;timestamp;pressure;altitude;pressure_sealevel;temperature;humidity
26859;BME280;14429;48.346;16.338;2023-08-20T00:00:25;100070.69;;;28.33;52.29
26859;BME280;14429;48.346;16.338;2023-08-20T00:02:54;100075.72;;;27.31;56.01
26859;BME280;14429;48.346;16.338;2023-08-20T00:05:23;100080.78;;;27.67;55.11
26859;BME280;14429;48.346;16.338;2023-08-20T00:07:50;100064.13;;;28.21;53.68
26859;BME280;14429;48.346;16.338;2023-08-20T00:10:16;100069.44;;;28.35;53.58
26859;BME280;14429;48.346;16.338;2023-08-20T00:12:42;100063.56;;;28.44;52.99
26859;BME280;14429;48.346;16.338;2023-08-20T00:15:08;100068.22;;;28.63;52.81
26859;BME280;14429;48.346;16.338;2023-08-20T00:17:34;100066.16;;;28.72;52.58
26859;BME280;14429;48.346;16.338;2023-08-20T00:20:00;100055.13;;;28.78;51.96
26859;BME280;14429;48.346;16.338;2023-08-20T00:22:26;100059.81;;;28.84;51.72
26859;BME280;14429;48.346;16.338;2023-08-20T00:24:54;100062.56;;;28.84;51.99
26859;BME280;14429;48.346;16.338;2023-08-20T00:27:19;100072.06;;;28.88;51.78
26859;BME280;14429;48.346;16.338;2023-08-20T00:29:44;100059.81;;;28.90;51.81
26859;BME280;14429;48.346;16.338;2023-08-20T00:32:10;100069.13;;;28.83;52.05
26859;BME280;14429;48.346;16.338;2023-08-20T00:34:35;100069.53;;;28.80;52.04
26859;BME280;14429;48.346;16.338;2023-08-20T00:37:01;100067.41;;;28.82;51.77
26859;BME280;14429;48.346;16.338;2023-08-20T00:39:26;100063.19;;;28.79;51.75
26859;BME280;14429;48.346;16.338;2023-08-20T00:41:53;100066.56;;;28.69;52.16
26859;BME280;14429;48.346;16.338;2023-08-20T00:44:19;100066.78;;;28.61;52.25
26859;BME280;14429;48.346;16.338;2023-08-20T00:46:44;100078.81;;;27.28;55.58
26859;BME280;14429;48.346;16.338;2023-08-20T00:49:10;100078.03;;;27.67;55.02
26859;BME280;14429;48.346;16.338;2023-08-20T00:51:36;100077.44;;;27.71;54.65
26859;BME280;14429;48.346;16.338;2023-08-20T00:54:02;100078.72;;;26.88;56.61
26859;BME280;14429;48.346;16.338;2023-08-20T00:56:28;100088.97;;;27.07;57.02
26859;BME280;14429;48.346;16.338;2023-08-20T00:58:55;100087.00;;;26.32;58.37
26859;BME280;14429;48.346;16.338;2023-08-20T01:01:21;100078.97;;;27.20;56.77
26859;BME280;14429;48.346;16.338;2023-08-20T01:03:47;100087.00;;;26.74;56.60
26859;BME280;14429;48.346;16.338;2023-08-20T01:06:19;100078.63;;;27.02;56.70
26859;BME280;14429;48.346;16.338;2023-08-20T01:08:47;100078.97;;;27.47;55.93
26859;BME280;14429;48.346;16.338;2023-08-20T01:11:17;100087.38;;;27.79;54.92
26859;BME280;14429;48.346;16.338;2023-08-20T01:13:46;100090.91;;;27.73;55.08
26859;BME280;14429;48.346;16.338;2023-08-20T01:16:12;100079.03;;;27.99;53.88
26859;BME280;14429;48.346;16.338;2023-08-20T01:18:38;100082.00;;;27.98;53.92
26859;BME280;14429;48.346;16.338;2023-08-20T01:21:06;100086.06;;;27.68;54.47
26859;BME280;14429;48.346;16.338;2023-08-20T01:23:57;100099.09;;;27.93;54.48
26859;BME280;14429;48.346;16.338;2023-08-20T01:26:49;100100.53;;;27.90;53.42
26859;BME280;14429;48.346;16.338;2023-08-20T01:29:19;100096.94;;;27.56;54.06
26859;BME280;14429;48.346;16.338;2023-08-20T01:31:45;100093.00;;;28.04;53.75
26859;BME280;14429;48.346;16.338;2023-08-20T01:34:10;100094.28;;;28.08;53.90
26859;BME280;14429;48.346;16.338;2023-08-20T01:36:37;100089.03;;;28.26;53.55
26859;BME280;14429;48.346;16.338;2023-08-20T01:39:03;100085.06;;;28.41;52.87
26859;BME280;14429;48.346;16.338;2023-08-20T01:41:28;100092.53;;;28.53;52.76
26859;BME280;14429;48.346;16.338;2023-08-20T01:43:54;100101.41;;;28.55;52.43
26859;BME280;14429;48.346;16.338;2023-08-20T01:46:21;100098.22;;;28.52;52.55
26859;BME280;14429;48.346;16.338;2023-08-20T01:48:46;100104.09;;;28.43;52.73
26859;BME280;14429;48.346;16.338;2023-08-20T01:51:11;100097.75;;;28.36;53.03
26859;BME280;14429;48.346;16.338;2023-08-20T01:53:37;100099.41;;;28.24;53.03
26859;BME280;14429;48.346;16.338;2023-08-20T01:56:02;100093.06;;;28.23;53.30
26859;BME280;14429;48.346;16.338;2023-08-20T01:58:28;100104.03;;;28.17;53.13
26859;BME280;14429;48.346;16.338;2023-08-20T02:00:53;100099.84;;;28.34;52.70
26859;BME280;14429;48.346;16.338;2023-08-20T02:03:20;100099.63;;;27.83;52.58
26859;BME280;14429;48.346;16.338;2023-08-20T02:05:45;100098.34;;;27.79;53.61
26859;BME280;14429;48.346;16.338;2023-08-20T02:08:11;100094.16;;;26.95;56.11
26859;BME280;14429;48.346;16.338;2023-08-20T02:10:36;100091.88;;;27.53;55.16
26859;BME280;14429;48.346;16.338;2023-08-20T02:13:01;100086.50;;;27.72;54.95
26859;BME280;14429;48.346;16.338;2023-08-20T02:15:27;100092.44;;;27.82;54.57
26859;BME280;14429;48.346;16.338;2023-08-20T02:17:52;100089.41;;;27.31;54.54
26859;BME280;14429;48.346;16.338;2023-08-20T02:20:19;100092.00;;;27.38;54.61
26859;BME280;14429;48.346;16.338;2023-08-20T02:22:44;100092.44;;;27.82;54.54
26859;BME280;14429;48.346;16.338;2023-08-20T02:25:10;100095.13;;;28.15;53.60
26859;BME280;14429;48.346;16.338;2023-08-20T02:27:35;100085.06;;;28.35;52.66
26859;BME280;14429;48.346;16.338;2023-08-20T02:30:01;100081.75;;;28.45;52.54
26859;BME280;14429;48.346;16.338;2023-08-20T02:32:26;100077.53;;;28.49;52.05
26859;BME280;14429;48.346;16.338;2023-08-20T02:34:51;100084.94;;;28.49;52.05
26859;BME280;14429;48.346;16.338;2023-08-20T02:37:18;100080.63;;;28.40;52.23
26859;BME280;14429;48.346;16.338;2023-08-20T02:39:44;100078.31;;;28.43;52.59
26859;BME280;14429;48.346;16.338;2023-08-20T02:42:09;100078.81;;;28.53;51.88
26859;BME280;14429;48.346;16.338;2023-08-20T02:44:35;100085.56;;;28.57;51.67
26859;BME280;14429;48.346;16.338;2023-08-20T02:47:00;100086.41;;;28.58;51.74
26859;BME280;14429;48.346;16.338;2023-08-20T02:49:25;100089.78;;;28.53;52.23
26859;BME280;14429;48.346;16.338;2023-08-20T02:51:51;100087.03;;;28.53;52.16
26859;BME280;14429;48.346;16.338;2023-08-20T02:54:18;100107.53;;;28.57;52.16
26859;BME280;14429;48.346;16.338;2023-08-20T02:56:43;100097.38;;;28.51;52.13
26859;BME280;14429;48.346;16.338;2023-08-20T02:59:08;100096.91;;;28.42;52.30
26859;BME280;14429;48.346;16.338;2023-08-20T03:01:34;100091.25;;;28.49;51.78
26859;BME280;14429;48.346;16.338;2023-08-20T03:03:59;100087.88;;;28.47;52.21
26859;BME280;14429;48.346;16.338;2023-08-20T03:06:25;100086.94;;;28.28;52.41
26859;BME280;14429;48.346;16.338;2023-08-20T03:08:50;100084.56;;;27.33;55.11
26859;BME280;14429;48.346;16.338;2023-08-20T03:11:17;100084.56;;;27.33;55.16
26859;BME280;14429;48.346;16.338;2023-08-20T03:13:42;100083.94;;;27.64;54.66
26859;BME280;14429;48.346;16.338;2023-08-20T03:16:08;100083.72;;;28.05;53.58
26859;BME280;14429;48.346;16.338;2023-08-20T03:18:33;100093.06;;;28.23;52.83
26859;BME280;14429;48.346;16.338;2023-08-20T03:20:59;100095.41;;;28.33;52.39
26859;BME280;14429;48.346;16.338;2023-08-20T03:23:25;100097.34;;;28.39;52.18
26859;BME280;14429;48.346;16.338;2023-08-20T03:25:50;100094.78;;;28.43;52.29
26859;BME280;14429;48.346;16.338;2023-08-20T03:28:18;100098.22;;;28.45;52.03
26859;BME280;14429;48.346;16.338;2023-08-20T03:30:43;100091.44;;;28.42;52.06
26859;BME280;14429;48.346;16.338;2023-08-20T03:33:09;100095.22;;;28.41;52.30
26859;BME280;14429;48.346;16.338;2023-08-20T03:35:34;100095.22;;;28.41;51.86
26859;BME280;14429;48.346;16.338;2023-08-20T03:37:59;100094.19;;;28.42;52.31
26859;BME280;14429;48.346;16.338;2023-08-20T03:40:25;100094.78;;;28.43;52.25
26859;BME280;14429;48.346;16.338;2023-08-20T03:42:50;100092.47;;;28.41;51.93
26859;BME280;14429;48.346;16.338;2023-08-20T03:45:17;100102.38;;;27.83;52.99
26859;BME280;14429;48.346;16.338;2023-08-20T03:47:42;100105.25;;;27.08;55.50
26859;BME280;14429;48.346;16.338;2023-08-20T03:50:08;100105.88;;;27.64;54.27
26859;BME280;14429;48.346;16.338;2023-08-20T03:52:34;100103.28;;;27.56;53.69
26859;BME280;14429;48.346;16.338;2023-08-20T03:54:59;100105.31;;;27.81;53.89
26859;BME280;14429;48.346;16.338;2023-08-20T03:57:24;100100.97;;;27.93;53.64
26859;BME280;14429;48.346;16.338;2023-08-20T03:59:50;100099.72;;;27.95;53.31
26859;BME280;14429;48.346;16.338;2023-08-20T04:02:16;100098.50;;;28.04;53.21
26859;BME280;14429;48.346;16.338;2023-08-20T04:04:42;100106.13;;;28.21;52.70
26859;BME280;14429;48.346;16.338;2023-08-20T04:07:07;100108.69;;;28.29;52.32
26859;BME280;14429;48.346;16.338;2023-08-20T04:09:33;100103.22;;;28.23;52.38
26859;BME280;14429;48.346;16.338;2023-08-20T04:11:58;100109.13;;;28.33;52.25
26859;BME280;14429;48.346;16.338;2023-08-20T04:14:24;100114.16;;;28.17;52.47
26859;BME280;14429;48.346;16.338;2023-08-20T04:16:49;100114.16;;;28.17;52.74
26859;BME280;14429;48.346;16.338;2023-08-20T04:19:16;100115.47;;;28.27;52.37
26859;BME280;14429;48.346;16.338;2023-08-20T04:21:41;100118.44;;;28.32;52.17
26859;BME280;14429;48.346;16.338;2023-08-20T04:24:07;100115.69;;;28.32;51.93
26859;BME280;14429;48.346;16.338;2023-08-20T04:26:32;100117.16;;;28.28;52.49
26859;BME280;14429;48.346;16.338;2023-08-20T04:28:58;100123.91;;;28.32;52.35
26859;BME280;14429;48.346;16.338;2023-08-20T04:31:23;100126.00;;;28.30;52.07
26859;BME280;14429;48.346;16.338;2023-08-20T04:33:48;100132.38;;;28.30;51.99
26859;BME280;14429;48.346;16.338;2023-08-20T04:36:15;100131.75;;;28.35;51.87
26859;BME280;14429;48.346;16.338;2023-08-20T04:38:41;100132.34;;;28.24;52.56
26859;BME280;14429;48.346;16.338;2023-08-20T04:41:06;100127.72;;;28.31;52.05
26859;BME280;14429;48.346;16.338;2023-08-20T04:43:31;100134.94;;;28.38;51.82
26859;BME280;14429;48.346;16.338;2023-08-20T04:45:57;100146.25;;;28.16;52.79
26859;BME280;14429;48.346;16.338;2023-08-20T04:48:22;100145.38;;;28.09;52.35
26859;BME280;14429;48.346;16.338;2023-08-20T04:50:48;100138.72;;;28.43;51.89
26859;BME280;14429;48.346;16.338;2023-08-20T04:53:15;100138.78;;;28.50;51.43
26859;BME280;14429;48.346;16.338;2023-08-20T04:55:40;100134.59;;;28.60;51.51
26859;BME280;14429;48.346;16.338;2023-08-20T04:58:05;100147.13;;;28.23;52.65
26859;BME280;14429;48.346;16.338;2023-08-20T05:00:31;100148.81;;;28.24;52.25
26859;BME280;14429;48.346;16.338;2023-08-20T05:02:56;100145.91;;;28.38;52.14
26859;BME280;14429;48.346;16.338;2023-08-20T05:05:22;100144.19;;;28.31;51.62
26859;BME280;14429;48.346;16.338;2023-08-20T05:07:47;100149.00;;;27.83;53.31
26859;BME280;14429;48.346;16.338;2023-08-20T05:10:14;100144.72;;;27.74;53.73
26859;BME280;14429;48.346;16.338;2023-08-20T05:12:39;100149.56;;;28.05;52.66
26859;BME280;14429;48.346;16.338;2023-08-20T05:15:05;100150.03;;;28.15;52.40
26859;BME280;14429;48.346;16.338;2023-08-20T05:17:30;100151.34;;;28.19;52.48
26859;BME280;14429;48.346;16.338;2023-08-20T05:19:56;100162.59;;;27.36;54.22
26859;BME280;14429;48.346;16.338;2023-08-20T05:22:21;100154.34;;;27.90;53.55
26859;BME280;14429;48.346;16.338;2023-08-20T05:24:47;100162.72;;;28.16;52.34
26859;BME280;14429;48.346;16.338;2023-08-20T05:27:14;100161.47;;;28.25;52.08
26859;BME280;14429;48.346;16.338;2023-08-20T05:29:40;100164.88;;;28.27;51.97
26859;BME280;14429;48.346;16.338;2023-08-20T05:32:06;100163.59;;;28.23;52.17
26859;BME280;14429;48.346;16.338;2023-08-20T05:34:31;100161.88;;;28.16;52.41
26859;BME280;14429;48.346;16.338;2023-08-20T05:36:57;100171.19;;;28.21;52.39
26859;BME280;14429;48.346;16.338;2023-08-20T05:39:22;100169.28;;;28.21;52.33
26859;BME280;14429;48.346;16.338;2023-08-20T05:41:47;100166.75;;;28.26;52.05
26859;BME280;14429;48.346;16.338;2023-08-20T05:44:14;100163.59;;;28.29;51.84
26859;BME280;14429;48.346;16.338;2023-08-20T05:46:39;100167.53;;;27.74;53.69
26859;BME280;14429;48.346;16.338;2023-08-20T05:49:05;100160.19;;;28.21;52.40
26859;BME280;14429;48.346;16.338;2023-08-20T05:51:31;100178.78;;;28.25;52.45
26859;BME280;14429;48.346;16.338;2023-08-20T05:53:56;100169.09;;;28.29;51.91
26859;BME280;14429;48.346;16.338;2023-08-20T05:56:21;100171.66;;;28.31;51.82
26859;BME280;14429;48.346;16.338;2023-08-20T05:58:47;100169.22;;;28.55;51.20
26859;BME280;14429;48.346;16.338;2023-08-20T06:01:14;100168.41;;;28.67;50.79
26859;BME280;14429;48.346;16.338;2023-08-20T06:03:39;100165.03;;;28.65;50.82
26859;BME280;14429;48.346;16.338;2023-08-20T06:06:04;100171.75;;;28.50;51.43
26859;BME280;14429;48.346;16.338;2023-08-20T06:08:30;100180.59;;;28.52;51.13
26859;BME280;14429;48.346;16.338;2023-08-20T06:10:55;100178.84;;;27.92;54.16
26859;BME280;14429;48.346;16.338;2023-08-20T06:13:21;100174.09;;;28.13;53.04
26859;BME280;14429;48.346;16.338;2023-08-20T06:15:46;100176.44;;;28.16;52.69
26859;BME280;14429;48.346;16.338;2023-08-20T06:18:13;100168.25;;;28.29;52.17
26859;BME280;14429;48.346;16.338;2023-08-20T06:20:38;100169.34;;;28.41;51.40
26859;BME280;14429;48.346;16.338;2023-08-20T06:23:04;100171.66;;;28.31;52.08
26859;BME280;14429;48.346;16.338;2023-08-20T06:25:29;100174.19;;;27.92;54.13
26859;BME280;14429;48.346;16.338;2023-08-20T06:27:55;100178.31;;;27.01;56.62
26859;BME280;14429;48.346;16.338;2023-08-20T06:30:20;100183.13;;;27.74;53.78
26859;BME280;14429;48.346;16.338;2023-08-20T06:32:46;100175.75;;;28.08;52.90
26859;BME280;14429;48.346;16.338;2023-08-20T06:35:12;100178.47;;;27.68;55.09
26859;BME280;14429;48.346;16.338;2023-08-20T06:37:38;100179.88;;;27.31;56.32
26859;BME280;14429;48.346;16.338;2023-08-20T06:40:05;100173.19;;;27.39;56.20
26859;BME280;14429;48.346;16.338;2023-08-20T06:42:30;100170.50;;;27.79;53.99
26859;BME280;14429;48.346;16.338;2023-08-20T06:44:56;100153.78;;;28.01;53.18
26859;BME280;14429;48.346;16.338;2023-08-20T06:47:21;100172.16;;;28.01;53.18
26859;BME280;14429;48.346;16.338;2023-08-20T06:49:47;100167.81;;;27.52;56.17
26859;BME280;14429;48.346;16.338;2023-08-20T06:52:13;100174.28;;;28.05;52.86
26859;BME280;14429;48.346;16.338;2023-08-20T06:54:39;100170.22;;;27.95;53.83
26859;BME280;14429;48.346;16.338;2023-08-20T06:57:04;100179.63;;;28.19;52.59
26859;BME280;14429;48.346;16.338;2023-08-20T06:59:30;100172.25;;;28.20;52.87
26859;BME280;14429;48.346;16.338;2023-08-20T07:01:55;100172.63;;;27.84;54.80
26859;BME280;14429;48.346;16.338;2023-08-20T07:04:20;100177.75;;;27.87;54.59
26859;BME280;14429;48.346;16.338;2023-08-20T07:06:46;100177.53;;;28.28;52.31
26859;BME280;14429;48.346;16.338;2023-08-20T07:09:13;100176.53;;;28.35;52.08
26859;BME280;14429;48.346;16.338;2023-08-20T07:11:38;100181.09;;;28.22;53.65
26859;BME280;14429;48.346;16.338;2023-08-20T07:14:03;100184.91;;;28.21;54.58
26859;BME280;14429;48.346;16.338;2023-08-20T07:16:29;100188.13;;;28.37;52.14
26859;BME280;14429;48.346;16.338;2023-08-20T07:18:54;100189.91;;;28.51;51.87
26859;BME280;14429;48.346;16.338;2023-08-20T07:21:20;100183.78;;;28.55;51.75
26859;BME280;14429;48.346;16.338;2023-08-20T07:23:45;100186.53;;;28.55;51.29
26859;BME280;14429;48.346;16.338;2023-08-20T07:26:12;100187.81;;;28.59;51.35
26859;BME280;14429;48.346;16.338;2023-08-20T07:28:37;100191.31;;;28.41;54.23
26859;BME280;14429;48.346;16.338;2023-08-20T07:31:03;100194.97;;;28.47;51.89
26859;BME280;14429;48.346;16.338;2023-08-20T07:33:28;100203.00;;;28.55;52.70
26859;BME280;14429;48.346;16.338;2023-08-20T07:35:54;100199.44;;;28.15;54.99
26859;BME280;14429;48.346;16.338;2023-08-20T07:38:19;100206.50;;;28.37;52.31
26859;BME280;14429;48.346;16.338;2023-08-20T07:40:45;100201.34;;;28.54;51.61
26859;BME280;14429;48.346;16.338;2023-08-20T07:43:11;100201.78;;;28.58;51.88
26859;BME280;14429;48.346;16.338;2023-08-20T07:45:37;100202.94;;;28.43;53.52
26859;BME280;14429;48.346;16.338;2023-08-20T07:48:03;100196.88;;;28.47;52.75
26859;BME280;14429;48.346;16.338;2023-08-20T07:50:28;100193.94;;;28.55;52.42
26859;BME280;14429;48.346;16.338;2023-08-20T07:52:53;100204.72;;;28.63;51.84
26859;BME280;14429;48.346;16.338;2023-08-20T07:55:19;100203.88;;;28.62;51.48
26859;BME280;14429;48.346;16.338;2023-08-20T07:57:44;100207.28;;;28.64;51.23
26859;BME280;14429;48.346;16.338;2023-08-20T08:00:13;100200.53;;;28.67;51.47
26859;BME280;14429;48.346;16.338;2023-08-20T08:02:39;100209.59;;;28.67;51.48
26859;BME280;14429;48.346;16.338;2023-08-20T08:05:05;100198.84;;;28.66;52.13
26859;BME280;14429;48.346;16.338;2023-08-20T08:07:31;100196.72;;;28.61;51.62
26859;BME280;14429;48.346;16.338;2023-08-20T08:09:56;100200.72;;;28.65;51.25
26859;BME280;14429;48.346;16.338;2023-08-20T08:12:22;100207.09;;;28.72;51.26
26859;BME280;14429;48.346;16.338;2023-08-20T08:14:47;100206.84;;;28.67;51.37
26859;BME280;14429;48.346;16.338;2023-08-20T08:17:14;100211.72;;;28.65;52.10
26859;BME280;14429;48.346;16.338;2023-08-20T08:19:39;100191.66;;;28.71;51.24
26859;BME280;14429;48.346;16.338;2023-08-20T08:22:05;100198.44;;;28.69;51.20
26859;BME280;14429;48.346;16.338;2023-08-20T08:24:30;100203.94;;;28.75;51.30
26859;BME280;14429;48.346;16.338;2023-08-20T08:26:56;100198.09;;;29.03;51.34
26859;BME280;14429;48.346;16.338;2023-08-20T08:29:21;100200.56;;;28.86;51.17
26859;BME280;14429;48.346;16.338;2023-08-20T08:31:46;100197.00;;;28.92;51.65
26859;BME280;14429;48.346;16.338;2023-08-20T08:34:13;100210.72;;;28.92;51.03
26859;BME280;14429;48.346;16.338;2023-08-20T08:36:39;100206.69;;;28.81;51.10
26859;BME280;14429;48.346;16.338;2023-08-20T08:39:04;100217.03;;;28.86;50.69
26859;BME280;14429;48.346;16.338;2023-08-20T08:41:30;100212.00;;;28.83;51.17
26859;BME280;14429;48.346;16.338;2023-08-20T08:43:57;100217.06;;;28.92;50.93
26859;BME280;14429;48.346;16.338;2023-08-20T08:46:23;100221.28;;;28.82;51.60
26859;BME280;14429;48.346;16.338;2023-08-20T08:48:51;100213.69;;;28.84;51.38
26859;BME280;14429;48.346;16.338;2023-08-20T08:51:18;100217.06;;;28.79;52.35
26859;BME280;14429;48.346;16.338;2023-08-20T08:53:43;100210.09;;;28.83;51.05
26859;BME280;14429;48.346;16.338;2023-08-20T08:56:09;100216.22;;;28.92;51.06
26859;BME280;14429;48.346;16.338;2023-08-20T08:58:35;100210.16;;;29.02;51.51
26859;BME280;14429;48.346;16.338;2023-08-20T09:01:00;100205.50;;;29.22;52.48
26859;BME280;14429;48.346;16.338;2023-08-20T09:03:26;100206.34;;;29.03;50.37
26859;BME280;14429;48.346;16.338;2023-08-20T09:05:55;100205.75;;;29.27;50.93
26859;BME280;14429;48.346;16.338;2023-08-20T09:08:23;100215.50;;;29.42;52.46
26859;BME280;14429;48.346;16.338;2023-08-20T09:10:51;100216.72;;;29.33;50.67
26859;BME280;14429;48.346;16.338;2023-08-20T09:13:17;100214.63;;;29.29;50.39
26859;BME280;14429;48.346;16.338;2023-08-20T09:15:42;100213.78;;;29.28;50.66
26859;BME280;14429;48.346;16.338;2023-08-20T09:18:09;100210.81;;;29.43;50.58
26859;BME280;14429;48.346;16.338;2023-08-20T09:20:35;100209.53;;;29.52;50.24
26859;BME280;14429;48.346;16.338;2023-08-20T09:23:01;100213.38;;;29.63;49.75
26859;BME280;14429;48.346;16.338;2023-08-20T09:25:28;100203.44;;;29.69;48.86
26859;BME280;14429;48.346;16.338;2023-08-20T09:27:54;100202.19;;;29.65;48.91
26859;BME280;14429;48.346;16.338;2023-08-20T09:30:19;100213.38;;;29.51;49.40
26859;BME280;14429;48.346;16.338;2023-08-20T09:32:45;100211.66;;;29.43;49.07
26859;BME280;14429;48.346;16.338;2023-08-20T09:35:18;100200.25;;;29.40;49.38
26859;BME280;14429;48.346;16.338;2023-08-20T09:37:43;100207.84;;;29.38;49.66
26859;BME280;14429;48.346;16.338;2023-08-20T09:40:10;100203.63;;;29.29;49.56
26859;BME280;14429;48.346;16.338;2023-08-20T09:42:37;100198.97;;;29.49;48.97
26859;BME280;14429;48.346;16.338;2023-08-20T09:45:03;100198.97;;;29.49;49.25
26859;BME280;14429;48.346;16.338;2023-08-20T09:47:31;100199.38;;;29.90;48.61
26859;BME280;14429;48.346;16.338;2023-08-20T09:49:59;100192.81;;;29.91;46.02
26859;BME280;14429;48.346;16.338;2023-08-20T09:52:31;100194.84;;;30.08;45.49
26859;BME280;14429;48.346;16.338;2023-08-20T09:55:00;100181.09;;;30.08;46.25
26859;BME280;14429;48.346;16.338;2023-08-20T09:57:33;100184.97;;;29.88;45.61
26859;BME280;14429;48.346;16.338;2023-08-20T10:00:00;100191.13;;;29.84;47.37
26859;BME280;14429;48.346;16.338;2023-08-20T10:02:26;100186.09;;;29.68;48.82
26859;BME280;14429;48.346;16.338;2023-08-20T10:04:52;100182.91;;;29.65;48.85
26859;BME280;14429;48.346;16.338;2023-08-20T10:07:18;100177.69;;;30.19;46.00
26859;BME280;14429;48.346;16.338;2023-08-20T10:09:44;100181.97;;;30.09;47.21
26859;BME280;14429;48.346;16.338;2023-08-20T10:12:11;100186.28;;;29.73;46.21
26859;BME280;14429;48.346;16.338;2023-08-20T10:14:37;100177.28;;;30.22;44.85
26859;BME280;14429;48.346;16.338;2023-08-20T10:17:07;100175.84;;;30.57;43.56
26859;BME280;14429;48.346;16.338;2023-08-20T10:19:33;100179.59;;;30.25;45.96
26859;BME280;14429;48.346;16.338;2023-08-20T10:21:58;100170.84;;;30.35;44.88
26859;BME280;14429;48.346;16.338;2023-08-20T10:24:24;100177.31;;;30.09;46.60
26859;BME280;14429;48.346;16.338;2023-08-20T10:27:07;100176.09;;;29.80;48.25
26859;BME280;14429;48.346;16.338;2023-08-20T10:29:37;100171.88;;;29.84;46.74
26859;BME280;14429;48.346;16.338;2023-08-20T10:32:05;100174.00;;;29.63;48.78
26859;BME280;14429;48.346;16.338;2023-08-20T10:34:36;100179.84;;;30.17;43.59
26859;BME280;14429;48.346;16.338;2023-08-20T10:37:02;100179.00;;;30.04;46.25
26859;BME280;14429;48.346;16.338;2023-08-20T10:39:28;100180.31;;;29.82;48.11
26859;BME280;14429;48.346;16.338;2023-08-20T10:42:08;100179.88;;;29.92;47.95
26859;BME280;14429;48.346;16.338;2023-08-20T10:44:58;100173.16;;;30.44;41.24
26859;BME280;14429;48.346;16.338;2023-08-20T10:47:23;100172.16;;;30.32;46.45
26859;BME280;14429;48.346;16.338;2023-08-20T10:49:51;100174.38;;;29.98;47.55
26859;BME280;14429;48.346;16.338;2023-08-20T10:52:17;100172.47;;;29.86;46.12
26859;BME280;14429;48.346;16.338;2023-08-20T10:54:43;100166.72;;;30.00;47.54
26859;BME280;14429;48.346;16.338;2023-08-20T10:57:08;100165.56;;;29.64;46.90
26859;BME280;14429;48.346;16.338;2023-08-20T10:59:39;100154.56;;;29.32;49.52
26859;BME280;14429;48.346;16.338;2023-08-20T11:02:09;100170.63;;;29.54;48.89
26859;BME280;14429;48.346;16.338;2023-08-20T11:04:38;100148.63;;;29.29;49.91
26859;BME280;14429;48.346;16.338;2023-08-20T11:07:05;100151.16;;;29.37;44.58
26859;BME280;14429;48.346;16.338;2023-08-20T11:09:30;100159.00;;;30.34;41.97
26859;BME280;14429;48.346;16.338;2023-08-20T11:11:56;100149.00;;;29.77;46.59
26859;BME280;14429;48.346;16.338;2023-08-20T11:14:22;100150.31;;;29.68;48.69
26859;BME280;14429;48.346;16.338;2023-08-20T11:16:48;100149.47;;;29.36;49.47
26859;BME280;14429;48.346;16.338;2023-08-20T11:19:15;100140.16;;;29.37;49.63
26859;BME280;14429;48.346;16.338;2023-08-20T11:21:44;100142.47;;;29.59;48.67
26859;BME280;14429;48.346;16.338;2023-08-20T11:24:11;100135.50;;;29.63;48.42
26859;BME280;14429;48.346;16.338;2023-08-20T11:26:39;100132.13;;;29.35;49.38
26859;BME280;14429;48.346;16.338;2023-08-20T11:29:05;100135.03;;;29.53;49.15
26859;BME280;14429;48.346;16.338;2023-08-20T11:31:31;100138.47;;;29.36;49.46
26859;BME280;14429;48.346;16.338;2023-08-20T11:33:57;100135.69;;;29.49;49.43
26859;BME280;14429;48.346;16.338;2023-08-20T11:36:23;100125.97;;;29.33;49.68
26859;BME280;14429;48.346;16.338;2023-08-20T11:38:50;100136.00;;;30.53;44.62
26859;BME280;14429;48.346;16.338;2023-08-20T11:41:17;100129.56;;;29.66;48.91
26859;BME280;14429;48.346;16.338;2023-08-20T11:43:42;100120.94;;;30.18;43.43
26859;BME280;14429;48.346;16.338;2023-08-20T11:46:12;100128.41;;;29.99;47.94
26859;BME280;14429;48.346;16.338;2023-08-20T11:48:38;100118.56;;;29.72;48.36
26859;BME280;14429;48.346;16.338;2023-08-20T11:51:04;100127.66;;;29.53;49.38
26859;BME280;14429;48.346;16.338;2023-08-20T11:53:29;100120.97;;;30.55;43.80
26859;BME280;14429;48.346;16.338;2023-08-20T11:55:55;100123.09;;;30.16;47.46
26859;BME280;14429;48.346;16.338;2023-08-20T11:58:22;100122.53;;;30.38;47.12
26859;BME280;14429;48.346;16.338;2023-08-20T12:00:49;100123.09;;;30.16;45.73
26859;BME280;14429;48.346;16.338;2023-08-20T12:03:14;100122.88;;;30.11;46.95
26859;BME280;14429;48.346;16.338;2023-08-20T12:05:41;100123.56;;;29.88;48.52
26859;BME280;14429;48.346;16.338;2023-08-20T12:08:06;100113.41;;;29.82;48.33
26859;BME280;14429;48.346;16.338;2023-08-20T12:10:32;100115.16;;;29.70;48.81
26859;BME280;14429;48.346;16.338;2023-08-20T12:12:58;100111.31;;;29.84;48.56
26859;BME280;14429;48.346;16.338;2023-08-20T12:15:25;100110.53;;;29.58;49.01
26859;BME280;14429;48.346;16.338;2023-08-20T12:17:57;100119.00;;;29.56;49.07
26859;BME280;14429;48.346;16.338;2023-08-20T12:20:23;100107.09;;;29.75;47.99
26859;BME280;14429;48.346;16.338;2023-08-20T12:22:49;100102.91;;;29.41;50.12
26859;BME280;14429;48.346;16.338;2023-08-20T12:25:14;100101.97;;;29.85;47.23
26859;BME280;14429;48.346;16.338;2023-08-20T12:27:39;100106.06;;;30.32;45.64
26859;BME280;14429;48.346;16.338;2023-08-20T12:30:07;100101.66;;;30.92;44.09
26859;BME280;14429;48.346;16.338;2023-08-20T12:32:34;100097.38;;;30.29;47.37
26859;BME280;14429;48.346;16.338;2023-08-20T12:34:59;100099.47;;;29.77;48.51